createdAt,value
2023-05-19T00:01:00.291Z,8.11
2023-05-19T00:03:27.119Z,8.09
2023-05-19T00:05:54.337Z,7.85
2023-05-19T00:08:23.311Z,7.83
2023-05-19T00:10:49.981Z,7.67
2023-05-19T00:13:16.674Z,7.48
2023-05-19T00:15:43.357Z,7.65
2023-05-19T00:18:09.930Z,7.63
2023-05-19T00:20:38.046Z,7.51
2023-05-19T00:23:04.564Z,7.48
2023-05-19T00:25:30.995Z,7.59
2023-05-19T00:27:59.201Z,7.51
2023-05-19T00:30:26.114Z,7.45
2023-05-19T00:32:52.720Z,7.34
2023-05-19T00:35:20.037Z,7.21
2023-05-19T00:37:46.710Z,7.20
2023-05-19T00:40:13.572Z,7.12
2023-05-19T00:42:41.247Z,7.04
2023-05-19T00:45:08.494Z,6.87
2023-05-19T00:47:35.208Z,6.89
2023-05-19T00:50:01.806Z,6.94
2023-05-19T00:52:28.394Z,6.98
2023-05-19T00:54:55.648Z,6.82
2023-05-19T00:57:22.356Z,6.89
2023-05-19T00:59:49.004Z,6.77
2023-05-19T01:02:15.794Z,6.73
2023-05-19T01:04:43.978Z,6.60
2023-05-19T01:07:12.451Z,6.53
2023-05-19T01:09:40.736Z,6.38
2023-05-19T01:12:08.669Z,6.48
2023-05-19T01:14:35.424Z,6.47
2023-05-19T01:17:08.824Z,6.46
2023-05-19T01:19:50.779Z,6.42
2023-05-19T01:22:55.185Z,6.47
2023-05-19T01:25:47.762Z,6.50
2023-05-19T01:28:41.951Z,6.45
2023-05-19T01:31:11.805Z,6.44
2023-05-19T01:33:41.123Z,6.20
2023-05-19T01:36:08.382Z,6.41
2023-05-19T01:38:38.478Z,6.41
2023-05-19T01:41:06.959Z,6.36
2023-05-19T01:43:35.943Z,6.38
2023-05-19T01:46:03.290Z,6.39
2023-05-19T01:48:30.655Z,6.37
2023-05-19T01:50:57.925Z,6.21
2023-05-19T01:53:24.975Z,6.04
2023-05-19T01:55:53.864Z,5.97
2023-05-19T01:58:20.628Z,6.13
2023-05-19T02:01:13.610Z,5.99
2023-05-19T02:04:08.800Z,5.75
2023-05-19T02:06:49.329Z,5.74
2023-05-19T02:09:23.066Z,5.71
2023-05-19T02:11:56.234Z,5.85
2023-05-19T02:14:50.061Z,5.82
2023-05-19T02:17:18.480Z,5.64
2023-05-19T02:19:46.371Z,5.77
2023-05-19T02:22:14.367Z,5.70
2023-05-19T02:24:41.401Z,5.57
2023-05-19T02:27:07.969Z,5.58
2023-05-19T02:29:34.441Z,5.61
2023-05-19T02:32:02.231Z,5.66
2023-05-19T02:34:28.783Z,5.61
2023-05-19T02:36:56.401Z,5.51
2023-05-19T02:39:22.903Z,5.33
2023-05-19T02:41:49.562Z,5.24
2023-05-19T02:44:16.142Z,5.21
2023-05-19T02:46:42.731Z,5.07
2023-05-19T02:49:09.252Z,5.11
2023-05-19T02:51:35.720Z,5.09
2023-05-19T02:54:02.317Z,5.07
2023-05-19T02:56:28.791Z,5.26
2023-05-19T02:58:55.269Z,5.25
2023-05-19T03:01:22.975Z,5.18
2023-05-19T03:03:49.709Z,5.15
2023-05-19T03:06:17.972Z,5.26
2023-05-19T03:08:45.004Z,5.27
2023-05-19T03:11:11.538Z,4.34
2023-05-19T03:13:38.060Z,5.10
2023-05-19T03:16:04.690Z,5.07
2023-05-19T03:18:31.691Z,5.08
2023-05-19T03:20:59.264Z,5.02
2023-05-19T03:23:26.615Z,5.04
2023-05-19T03:25:56.312Z,5.00
2023-05-19T03:28:23.380Z,5.11
2023-05-19T03:30:52.825Z,5.01
2023-05-19T03:33:23.944Z,5.00
2023-05-19T03:35:52.979Z,4.94
2023-05-19T03:38:19.860Z,4.91
2023-05-19T03:40:55.036Z,4.73
2023-05-19T03:43:21.484Z,4.82
2023-05-19T03:45:53.773Z,4.97
2023-05-19T03:48:43.209Z,4.73
2023-05-19T03:51:24.522Z,4.76
2023-05-19T03:53:54.960Z,4.72
2023-05-19T03:56:23.649Z,4.79
2023-05-19T03:58:50.206Z,4.68
2023-05-19T04:01:16.673Z,4.78
2023-05-19T04:03:43.186Z,4.82
2023-05-19T04:06:09.777Z,4.67
2023-05-19T04:08:36.220Z,4.67
2023-05-19T04:11:02.780Z,4.69
2023-05-19T04:13:32.984Z,4.45
2023-05-19T04:15:59.494Z,4.53
2023-05-19T04:18:28.823Z,4.60
2023-05-19T04:20:55.798Z,4.65
2023-05-19T04:23:22.411Z,4.74
2023-05-19T04:25:49.625Z,4.75
2023-05-19T04:28:16.231Z,4.86
2023-05-19T04:30:42.972Z,4.92
2023-05-19T04:33:09.558Z,4.80
2023-05-19T04:35:38.108Z,4.88
2023-05-19T04:38:04.691Z,4.98
2023-05-19T04:40:33.388Z,4.93
2023-05-19T04:43:01.958Z,5.02
2023-05-19T04:45:28.908Z,5.08
2023-05-19T04:47:59.216Z,4.73
2023-05-19T04:50:26.206Z,5.23
2023-05-19T04:52:52.799Z,5.26
2023-05-19T04:55:19.605Z,5.35
2023-05-19T04:57:47.623Z,5.47
2023-05-19T05:00:14.496Z,5.29
2023-05-19T05:02:52.500Z,5.53
2023-05-19T05:05:21.067Z,5.69
2023-05-19T05:07:47.735Z,5.82
2023-05-19T05:10:14.419Z,5.96
2023-05-19T05:12:41.350Z,6.14
2023-05-19T05:15:08.609Z,6.30
2023-05-19T05:17:37.677Z,6.62
2023-05-19T05:20:06.240Z,6.76
2023-05-19T05:22:33.436Z,7.11
2023-05-19T05:25:01.845Z,7.45
2023-05-19T05:27:28.790Z,7.67
2023-05-19T05:29:56.452Z,7.78
2023-05-19T05:32:26.126Z,7.89
2023-05-19T05:34:52.785Z,7.95
2023-05-19T05:37:20.136Z,8.01
2023-05-19T05:39:46.694Z,8.16
2023-05-19T05:42:13.621Z,8.35
2023-05-19T05:44:40.801Z,8.59
2023-05-19T05:47:08.026Z,8.81
2023-05-19T05:49:38.110Z,8.86
2023-05-19T05:52:06.909Z,8.99
2023-05-19T05:54:41.124Z,9.19
2023-05-19T05:57:08.935Z,9.37
2023-05-19T05:59:35.454Z,9.45
2023-05-19T06:02:02.367Z,9.45
2023-05-19T06:04:28.974Z,9.39
2023-05-19T06:07:00.812Z,9.60
2023-05-19T06:09:30.706Z,9.75
2023-05-19T06:11:58.268Z,9.79
2023-05-19T06:14:26.320Z,9.81
2023-05-19T06:17:12.875Z,10.05
2023-05-19T06:19:39.549Z,10.33
2023-05-19T06:22:06.985Z,10.57
2023-05-19T06:24:33.845Z,10.92
2023-05-19T06:27:00.424Z,11.13
2023-05-19T06:29:26.955Z,10.90
2023-05-19T06:31:56.334Z,10.58
2023-05-19T06:34:22.961Z,10.91
2023-05-19T06:36:49.531Z,11.22
2023-05-19T06:39:18.575Z,11.46
2023-05-19T06:41:45.638Z,11.69
2023-05-19T06:44:25.068Z,11.80
2023-05-19T06:46:51.596Z,12.05
2023-05-19T06:49:18.979Z,12.12
2023-05-19T06:51:47.818Z,11.98
2023-05-19T06:54:15.988Z,11.38
2023-05-19T06:56:42.580Z,11.85
2023-05-19T06:59:10.282Z,12.40
2023-05-19T07:01:37.835Z,12.67
2023-05-19T07:04:04.675Z,12.98
2023-05-19T07:06:31.360Z,13.57
2023-05-19T07:08:57.800Z,12.72
2023-05-19T07:11:26.217Z,12.81
2023-05-19T07:13:53.200Z,12.78
2023-05-19T07:16:25.489Z,12.89
2023-05-19T07:18:52.155Z,12.54
2023-05-19T07:21:18.684Z,12.49
2023-05-19T07:23:46.436Z,11.84
2023-05-19T07:26:12.966Z,12.29
2023-05-19T07:28:41.455Z,12.53
2023-05-19T07:31:08.242Z,12.46
2023-05-19T07:33:34.834Z,12.28
2023-05-19T07:36:01.300Z,12.46
2023-05-19T07:38:28.762Z,12.58
2023-05-19T07:40:55.388Z,12.70
2023-05-19T07:43:21.890Z,13.07
2023-05-19T07:45:48.464Z,13.22
2023-05-19T07:48:15.193Z,12.67
2023-05-19T07:50:41.653Z,12.90
2023-05-19T07:53:08.105Z,13.23
2023-05-19T07:55:34.690Z,13.91
2023-05-19T07:58:01.115Z,13.67
2023-05-19T08:00:27.645Z,13.62
2023-05-19T08:02:54.370Z,13.53
2023-05-19T08:05:20.961Z,13.78
2023-05-19T08:07:47.504Z,14.11
2023-05-19T08:10:14.041Z,14.06
2023-05-19T08:12:40.569Z,13.48
2023-05-19T08:15:07.937Z,13.86
2023-05-19T08:17:34.477Z,13.84
2023-05-19T08:20:00.902Z,13.52
2023-05-19T08:22:27.319Z,13.27
2023-05-19T08:24:53.962Z,13.14
2023-05-19T08:27:20.750Z,13.09
2023-05-19T08:29:47.231Z,13.17
2023-05-19T08:32:13.785Z,13.81
2023-05-19T08:34:41.162Z,13.51
2023-05-19T08:37:07.688Z,13.31
2023-05-19T08:39:34.875Z,13.03
2023-05-19T08:42:02.308Z,13.31
2023-05-19T08:44:30.713Z,13.86
2023-05-19T08:47:00.934Z,13.57
2023-05-19T08:49:28.446Z,14.26
2023-05-19T08:52:06.291Z,14.80
2023-05-19T08:54:50.786Z,15.20
2023-05-19T08:57:17.965Z,14.65
2023-05-19T08:59:44.814Z,14.79
2023-05-19T09:02:14.251Z,15.32
2023-05-19T09:04:41.901Z,14.69
2023-05-19T09:07:09.334Z,14.68
2023-05-19T09:09:35.916Z,15.01
2023-05-19T09:12:02.463Z,15.11
2023-05-19T09:14:29.474Z,14.30
2023-05-19T09:16:56.063Z,13.92
2023-05-19T09:19:22.778Z,14.15
2023-05-19T09:22:00.231Z,14.38
2023-05-19T09:24:27.202Z,14.47
2023-05-19T09:27:00.211Z,15.10
2023-05-19T09:29:27.055Z,14.21
2023-05-19T09:31:56.036Z,14.31
2023-05-19T09:34:24.704Z,15.27
2023-05-19T09:36:54.416Z,14.86
2023-05-19T09:39:23.098Z,14.86
2023-05-19T09:41:54.297Z,14.55
2023-05-19T09:44:21.065Z,14.48
2023-05-19T09:46:51.390Z,14.63
2023-05-19T09:49:32.782Z,14.53
2023-05-19T09:52:02.168Z,14.65
2023-05-19T09:54:32.115Z,14.48
2023-05-19T09:57:03.642Z,14.43
2023-05-19T09:59:33.466Z,14.64
2023-05-19T10:02:02.165Z,14.44
2023-05-19T10:04:30.052Z,14.53
2023-05-19T10:06:59.483Z,14.57
2023-05-19T10:09:28.430Z,14.21
2023-05-19T10:11:56.508Z,14.24
2023-05-19T10:14:24.889Z,14.02
2023-05-19T10:16:52.951Z,14.15
2023-05-19T10:19:24.946Z,14.29
2023-05-19T10:21:51.833Z,14.53
2023-05-19T10:24:19.330Z,15.11
2023-05-19T10:26:51.194Z,15.24
2023-05-19T10:29:23.172Z,15.41
2023-05-19T10:31:52.809Z,14.80
2023-05-19T10:34:19.339Z,15.03
2023-05-19T10:36:55.955Z,14.98
2023-05-19T10:39:25.839Z,15.21
2023-05-19T10:42:13.887Z,15.36
2023-05-19T10:45:16.166Z,15.66
2023-05-19T10:47:43.516Z,16.07
2023-05-19T10:50:10.571Z,15.74
2023-05-19T10:52:38.725Z,15.39
2023-05-19T10:55:10.032Z,15.71
2023-05-19T10:57:36.723Z,15.43
2023-05-19T11:00:24.729Z,14.98
2023-05-19T11:02:56.165Z,15.16
2023-05-19T11:05:29.529Z,15.95
2023-05-19T11:08:02.157Z,15.85
2023-05-19T11:10:28.801Z,15.83
2023-05-19T11:15:27.416Z,14.95
2023-05-19T11:17:54.362Z,15.52
2023-05-19T11:20:29.470Z,15.33
2023-05-19T11:23:09.100Z,15.52
2023-05-19T11:25:50.769Z,15.15
2023-05-19T11:28:19.910Z,15.34
2023-05-19T11:30:50.602Z,15.17
2023-05-19T11:33:20.782Z,15.18
2023-05-19T11:35:50.311Z,15.47
2023-05-19T11:38:18.455Z,14.81
2023-05-19T11:40:45.070Z,14.57
2023-05-19T11:43:12.520Z,14.39
2023-05-19T11:45:39.455Z,14.64
2023-05-19T11:48:06.830Z,14.76
2023-05-19T11:50:33.536Z,15.10
2023-05-19T11:53:00.920Z,15.43
2023-05-19T11:55:27.997Z,15.32
2023-05-19T11:58:05.161Z,15.19
2023-05-19T12:00:39.968Z,14.98
2023-05-19T12:03:08.165Z,15.43
2023-05-19T12:05:41.853Z,15.85
2023-05-19T12:08:10.073Z,16.03
2023-05-19T12:10:37.171Z,15.99
2023-05-19T12:13:06.195Z,16.27
2023-05-19T12:15:33.590Z,16.55
2023-05-19T12:18:01.687Z,16.60
2023-05-19T12:20:32.362Z,16.47
2023-05-19T12:23:00.549Z,15.54
2023-05-19T12:25:27.811Z,15.21
2023-05-19T12:27:59.152Z,15.23
2023-05-19T12:30:30.317Z,15.50
2023-05-19T12:33:00.030Z,15.56
2023-05-19T12:35:37.682Z,15.46
2023-05-19T12:38:05.194Z,15.29
2023-05-19T12:40:34.043Z,15.04
2023-05-19T12:43:00.949Z,14.86
2023-05-19T12:45:28.566Z,14.88
2023-05-19T12:47:55.890Z,14.92
2023-05-19T12:50:30.850Z,15.44
2023-05-19T12:52:59.507Z,14.96
2023-05-19T12:55:26.114Z,14.86
2023-05-19T12:57:56.638Z,15.20
2023-05-19T13:00:32.459Z,15.36
2023-05-19T13:03:04.993Z,15.41
2023-05-19T13:05:36.744Z,15.49
2023-05-19T13:08:11.171Z,15.17
2023-05-19T13:10:39.592Z,14.76
2023-05-19T13:13:07.491Z,15.07
2023-05-19T13:15:36.334Z,15.14
2023-05-19T13:18:08.760Z,15.52
2023-05-19T13:20:36.826Z,15.87
2023-05-19T13:23:03.668Z,16.18
2023-05-19T13:25:30.778Z,15.99
2023-05-19T13:27:59.345Z,15.30
2023-05-19T13:30:26.036Z,15.46
2023-05-19T13:32:52.709Z,15.70
2023-05-19T13:35:20.396Z,15.69
2023-05-19T13:37:46.875Z,15.73
2023-05-19T13:40:13.582Z,15.32
2023-05-19T13:42:40.769Z,15.12
2023-05-19T13:45:07.927Z,15.15
2023-05-19T13:47:34.477Z,15.11
2023-05-19T13:50:02.247Z,15.04
2023-05-19T13:52:30.494Z,14.66
2023-05-19T13:54:57.434Z,14.52
2023-05-19T13:57:24.262Z,14.63
2023-05-19T14:00:02.026Z,14.54
2023-05-19T14:02:38.617Z,15.03
2023-05-19T14:05:07.025Z,15.17
2023-05-19T14:07:34.977Z,15.06
2023-05-19T14:10:03.872Z,15.00
2023-05-19T14:12:41.392Z,15.67
2023-05-19T14:15:14.113Z,15.71
2023-05-19T14:17:40.585Z,15.66
2023-05-19T14:20:07.658Z,15.36
2023-05-19T14:22:34.120Z,14.92
2023-05-19T14:25:00.827Z,14.87
2023-05-19T14:27:27.283Z,14.81
2023-05-19T14:29:53.987Z,14.86
2023-05-19T14:32:20.804Z,14.84
2023-05-19T14:34:47.474Z,14.62
2023-05-19T14:37:14.016Z,14.66
2023-05-19T14:39:40.575Z,14.69
2023-05-19T14:42:07.008Z,14.88
2023-05-19T14:44:33.497Z,14.96
2023-05-19T14:47:01.858Z,14.68
2023-05-19T14:49:28.349Z,14.76
2023-05-19T14:51:55.116Z,14.67
2023-05-19T14:54:21.892Z,14.66
2023-05-19T14:56:48.334Z,14.72
2023-05-19T14:59:14.822Z,14.69
2023-05-19T15:01:41.398Z,15.09
2023-05-19T15:04:07.897Z,15.06
2023-05-19T15:06:34.412Z,15.26
2023-05-19T15:09:00.944Z,15.26
2023-05-19T15:11:27.436Z,15.46
2023-05-19T15:13:53.992Z,15.02
2023-05-19T15:16:20.451Z,15.20
2023-05-19T15:18:46.921Z,15.33
2023-05-19T15:21:13.447Z,15.31
2023-05-19T15:23:39.905Z,15.21
2023-05-19T15:26:06.755Z,15.39
2023-05-19T15:28:33.593Z,15.49
2023-05-19T15:31:00.198Z,15.64
2023-05-19T15:33:26.721Z,15.64
2023-05-19T15:35:53.364Z,15.49
2023-05-19T15:38:20.485Z,15.62
2023-05-19T15:40:47.188Z,15.74
2023-05-19T15:43:14.055Z,15.53
2023-05-19T15:45:40.972Z,15.47
2023-05-19T15:48:07.573Z,15.38
2023-05-19T15:50:34.490Z,15.22
2023-05-19T15:53:01.235Z,15.31
2023-05-19T15:55:27.769Z,15.50
2023-05-19T15:57:54.265Z,15.50
2023-05-19T16:00:20.949Z,15.48
2023-05-19T16:02:47.531Z,15.65
2023-05-19T16:05:14.123Z,15.64
2023-05-19T16:07:41.990Z,15.67
2023-05-19T16:10:08.868Z,15.09
2023-05-19T16:12:36.576Z,15.62
2023-05-19T16:15:03.435Z,15.52
2023-05-19T16:17:29.998Z,15.67
2023-05-19T16:19:56.605Z,15.26
2023-05-19T16:22:24.689Z,15.55
2023-05-19T16:24:52.117Z,15.22
2023-05-19T16:27:18.799Z,15.14
2023-05-19T16:29:45.565Z,15.19
2023-05-19T16:32:12.646Z,15.40
2023-05-19T16:34:39.566Z,15.50
2023-05-19T16:37:06.080Z,15.56
2023-05-19T16:39:32.741Z,15.23
2023-05-19T16:41:59.237Z,15.85
2023-05-19T16:44:26.003Z,15.61
2023-05-19T16:46:52.472Z,15.71
2023-05-19T16:49:18.985Z,15.60
2023-05-19T16:51:46.832Z,15.45
2023-05-19T16:54:14.654Z,15.54
2023-05-19T16:56:41.268Z,15.63
2023-05-19T16:59:09.318Z,15.81
2023-05-19T17:01:35.893Z,15.75
2023-05-19T17:04:02.657Z,15.92
2023-05-19T17:06:29.153Z,15.88
2023-05-19T17:08:55.654Z,15.74
2023-05-19T17:11:22.207Z,15.52
2023-05-19T17:13:48.642Z,15.47
2023-05-19T17:16:15.424Z,15.14
2023-05-19T17:18:41.988Z,15.11
2023-05-19T17:21:08.553Z,15.09
2023-05-19T17:23:35.038Z,15.01
2023-05-19T17:26:01.852Z,14.87
2023-05-19T17:28:28.450Z,14.86
2023-05-19T17:30:54.935Z,14.85
2023-05-19T17:33:21.472Z,14.96
2023-05-19T17:35:48.002Z,14.99
2023-05-19T17:38:14.564Z,15.12
2023-05-19T17:40:42.140Z,15.18
2023-05-19T17:43:08.781Z,15.39
2023-05-19T17:45:35.588Z,15.41
2023-05-19T17:48:02.273Z,15.53
2023-05-19T17:50:28.804Z,15.56
2023-05-19T17:52:56.178Z,15.44
2023-05-19T17:55:24.728Z,15.34
2023-05-19T17:57:51.349Z,15.42
2023-05-19T18:00:18.612Z,15.35
2023-05-19T18:02:45.475Z,15.14
2023-05-19T18:05:12.692Z,15.20
2023-05-19T18:07:40.172Z,15.07
2023-05-19T18:10:08.218Z,14.99
2023-05-19T18:12:34.716Z,15.06
2023-05-19T18:15:01.332Z,15.15
2023-05-19T18:17:27.814Z,15.13
2023-05-19T18:19:54.585Z,15.20
2023-05-19T18:22:21.234Z,15.30
2023-05-19T18:24:47.829Z,15.08
2023-05-19T18:27:14.282Z,15.30
2023-05-19T18:29:40.843Z,15.36
2023-05-19T18:32:07.794Z,15.37
2023-05-19T18:34:34.365Z,15.30
2023-05-19T18:37:00.902Z,15.20
2023-05-19T18:39:29.240Z,15.24
2023-05-19T18:41:55.890Z,15.13
2023-05-19T18:44:22.469Z,15.10
2023-05-19T18:46:48.975Z,15.12
2023-05-19T18:49:15.695Z,15.09
2023-05-19T18:51:42.494Z,15.04
2023-05-19T18:54:09.051Z,15.09
2023-05-19T18:56:35.683Z,14.95
2023-05-19T18:59:02.324Z,14.98
2023-05-19T19:01:28.997Z,14.97
2023-05-19T19:03:55.730Z,15.01
2023-05-19T19:06:23.274Z,14.98
2023-05-19T19:08:50.143Z,14.77
2023-05-19T19:11:16.654Z,14.73
2023-05-19T19:13:43.692Z,14.77
2023-05-19T19:16:10.694Z,14.67
2023-05-19T19:18:37.243Z,14.61
2023-05-19T19:21:05.800Z,14.51
2023-05-19T19:23:32.678Z,14.48
2023-05-19T19:25:59.142Z,14.39
2023-05-19T19:28:25.792Z,14.31
2023-05-19T19:30:52.265Z,14.24
2023-05-19T19:33:18.873Z,14.15
2023-05-19T19:35:46.959Z,14.28
2023-05-19T19:38:13.687Z,14.40
2023-05-19T19:40:40.181Z,14.44
2023-05-19T19:43:06.685Z,14.44
2023-05-19T19:45:34.718Z,14.57
2023-05-19T19:48:01.671Z,14.54
2023-05-19T19:50:28.368Z,14.58
2023-05-19T19:52:54.837Z,14.49
2023-05-19T19:55:21.574Z,14.60
2023-05-19T19:57:49.453Z,14.60
2023-05-19T20:00:16.549Z,14.58
2023-05-19T20:02:55.818Z,14.51
2023-05-19T20:05:29.801Z,14.36
2023-05-19T20:07:56.282Z,14.26
2023-05-19T20:10:22.741Z,14.10
2023-05-19T20:12:50.557Z,14.16
2023-05-19T20:15:17.270Z,14.03
2023-05-19T20:17:43.807Z,13.90
2023-05-19T20:20:12.227Z,13.69
2023-05-19T20:22:39.197Z,13.74
2023-05-19T20:25:06.500Z,13.37
2023-05-19T20:27:33.176Z,13.39
2023-05-19T20:29:59.723Z,13.28
2023-05-19T20:32:26.197Z,13.25
2023-05-19T20:34:52.737Z,13.15
2023-05-19T20:37:19.178Z,13.20
2023-05-19T20:39:45.622Z,13.06
2023-05-19T20:42:12.247Z,12.98
2023-05-19T20:44:38.752Z,12.98
2023-05-19T20:47:07.896Z,12.92
2023-05-19T20:49:35.146Z,12.91
2023-05-19T20:52:01.672Z,12.75
2023-05-19T20:54:28.181Z,12.76
2023-05-19T20:56:54.812Z,12.73
2023-05-19T20:59:21.320Z,12.69
2023-05-19T21:01:48.033Z,12.81
2023-05-19T21:04:14.678Z,12.71
2023-05-19T21:06:41.283Z,12.67
2023-05-19T21:09:07.893Z,12.29
2023-05-19T21:11:34.621Z,12.61
2023-05-19T21:14:04.122Z,12.56
2023-05-19T21:16:31.241Z,12.58
2023-05-19T21:18:58.021Z,12.66
2023-05-19T21:21:24.569Z,12.38
2023-05-19T21:23:51.106Z,12.45
2023-05-19T21:26:17.893Z,12.44
2023-05-19T21:28:44.340Z,12.45
2023-05-19T21:31:10.961Z,12.39
2023-05-19T21:33:37.557Z,12.39
2023-05-19T21:36:04.229Z,12.32
2023-05-19T21:38:30.937Z,12.40
2023-05-19T21:40:57.588Z,12.30
2023-05-19T21:43:24.073Z,12.33
2023-05-19T21:45:50.759Z,12.41
2023-05-19T21:48:17.649Z,12.24
2023-05-19T21:50:44.293Z,12.25
2023-05-19T21:53:10.837Z,12.27
2023-05-19T21:55:37.388Z,12.31
2023-05-19T21:58:03.829Z,12.27
2023-05-19T22:00:30.321Z,12.48
2023-05-19T22:02:57.007Z,12.30
2023-05-19T22:05:23.527Z,12.24
2023-05-19T22:07:50.103Z,12.28
2023-05-19T22:10:16.550Z,12.30
2023-05-19T22:12:43.012Z,12.24
2023-05-19T22:15:10.318Z,12.13
2023-05-19T22:17:37.032Z,12.12
2023-05-19T22:20:03.952Z,12.06
2023-05-19T22:22:30.496Z,12.12
2023-05-19T22:24:57.240Z,12.08
2023-05-19T22:27:23.720Z,12.08
2023-05-19T22:29:50.490Z,12.08
2023-05-19T22:32:18.378Z,12.10
2023-05-19T22:34:45.217Z,11.98
2023-05-19T22:37:11.967Z,11.76
2023-05-19T22:39:38.994Z,11.89
2023-05-19T22:42:05.862Z,11.93
2023-05-19T22:44:32.432Z,11.89
2023-05-19T22:46:58.954Z,11.93
2023-05-19T22:49:27.267Z,11.82
2023-05-19T22:51:53.759Z,11.86
2023-05-19T22:54:20.315Z,11.85
2023-05-19T22:56:48.681Z,11.88
2023-05-19T22:59:17.590Z,11.87
2023-05-19T23:01:46.549Z,11.82
2023-05-19T23:04:13.838Z,11.91
2023-05-19T23:06:41.297Z,11.82
2023-05-19T23:09:08.043Z,11.64
2023-05-19T23:11:35.752Z,11.84
2023-05-19T23:14:02.336Z,11.77
2023-05-19T23:16:28.826Z,11.88
2023-05-19T23:18:55.426Z,11.44
2023-05-19T23:21:22.032Z,11.77
2023-05-19T23:23:49.300Z,11.78
2023-05-19T23:26:16.072Z,11.88
2023-05-19T23:28:42.941Z,11.81
2023-05-19T23:31:09.531Z,11.28
2023-05-19T23:33:36.197Z,11.73
2023-05-19T23:36:10.284Z,11.75
2023-05-19T23:38:37.425Z,11.64
2023-05-19T23:41:05.038Z,11.66
2023-05-19T23:43:34.457Z,11.64
2023-05-19T23:46:01.142Z,11.62
2023-05-19T23:48:31.252Z,11.61
2023-05-19T23:50:58.217Z,11.65
2023-05-19T23:53:24.964Z,11.54
2023-05-19T23:55:51.623Z,11.56
2023-05-19T23:58:18.270Z,11.46
